Aeroporto :
LOGIN :

Iscrizione | Disclaimer

   EN    FR    IT 

 










Sommario :    VFR   VFR Marginale   IFR   IFR Intensivo   IFR Molto Intensivo
Visibilità : 
Base nubi : 
>= 8 km
>= 3000ft
5 / 8 km
1000 / 3000 ft
1500m / 5 km
500 / 1000 ft
800 / 1500m
200 / 500 ft
< 800m
< 200 ft
Simboli :   Temporali  Nebbia  Neve Forte  Precipitazioni Forti  Vento > 20 kt
SIGMETs :   Varie  Temporali  Ghiacco  Turbolenza  Onda orograficha  Ceneri Vulcaniche






- Altitudine del aeroporto : 236 ft
- Codice IATA : MMX


ESMS - Malmö Sturup

ULTIMO METAR :
  • 202350Z 20019KT 9999 -RA OVC007 06/05 Q0998

METARs OBSOLETI :
  • 202320Z 19019KT 8000 -RA OVC007 06/05 Q0999
  • 202250Z 20020KT 9000 -RA BKN008 OVC012 06/05 Q0999
  • 202220Z 19017KT 7000 RA BKN009 OVC023 06/05 Q1000
  • 202150Z 19017KT 9999 BKN010 OVC030 06/05 Q1000
  • 202120Z 19018KT 9999 BKN009 OVC025 06/05 Q1001

TAF TAF ESMS
Valido dal 21 a 00 ore il 22 a 00 ore UTC


202312Z 2100/2124 20020G32KT 7000 RA OVC004
TEMPO 2100/2102 29018KT NSW SCT020
TEMPO 2102/2108 SHRA SCT020CB
BECMG 2118/2120 22020KT BKN010
TEMPO 2120/2124 4000 -RADZ BKN006



MetMap, La meteo Aeronautica in un colpo d'occhio ! - Copyright ORBIFLY Dicembre 2007 - Disclaimer

ORBIFLY MET'MAP TEAM :

Programmazione e sviluppo : Alexandra Zaïnal
Concezione : Baudouin d'Aumeries
Aiuto per la programmazione : Marc-Olivier Méhu
Supporto tecnico e logistico : Manuel Goepfert
Aiuto per la traduzione : Arnaldo La Scala

Contatto : metmap@orbifly.com




FONTI E CREDITI :

   NOAA